Terminal Aerodrome Forecast
Issued by NWS

Home | Current Version | Previous Version | Text Only | Print | Product List | Glossary On
Versions: 1 2 3 4 5 6 7 8 9 10 11 12 13 14 15 16 17 18 19 20
000
FTUS43 KMKX 251004 AAB
TAFENW
TAF AMD
KENW 251004Z 2510/2606 28010G17KT P6SM SCT025
     FM251400 30012G20KT P6SM SCT030
     FM252300 31009KT P6SM FEW250
     FM260500 31005KT P6SM FEW250=

USA.gov is the U.S. government's official web portal to all federal, state and local government web resources and services.